sensor_id;sensor_type;location;lat;lon;timestamp;temperature;humidity
37488;DHT22;23342;52.620;13.300;2022-07-04T00:02:18;21.30;99.90
37488;DHT22;23342;52.620;13.300;2022-07-04T00:04:43;21.30;99.90
37488;DHT22;23342;52.620;13.300;2022-07-04T00:07:09;21.30;99.90
37488;DHT22;23342;52.620;13.300;2022-07-04T00:09:34;21.30;99.90
37488;DHT22;23342;52.620;13.300;2022-07-04T00:12:00;21.20;99.90
37488;DHT22;23342;52.620;13.300;2022-07-04T00:14:25;21.20;99.90
37488;DHT22;23342;52.620;13.300;2022-07-04T00:16:50;21.10;99.90
37488;DHT22;23342;52.620;13.300;2022-07-04T00:19:16;21.10;99.90
37488;DHT22;23342;52.620;13.300;2022-07-04T00:21:41;21.10;99.90
37488;DHT22;23342;52.620;13.300;2022-07-04T00:24:07;21.00;99.90
37488;DHT22;23342;52.620;13.300;2022-07-04T00:26:33;21.00;99.90
37488;DHT22;23342;52.620;13.300;2022-07-04T00:28:59;21.00;99.90
37488;DHT22;23342;52.620;13.300;2022-07-04T00:31:24;20.90;99.90
37488;DHT22;23342;52.620;13.300;2022-07-04T00:33:50;20.90;99.90
37488;DHT22;23342;52.620;13.300;2022-07-04T00:36:15;20.80;99.90
37488;DHT22;23342;52.620;13.300;2022-07-04T00:38:41;20.70;99.90
37488;DHT22;23342;52.620;13.300;2022-07-04T00:41:06;20.70;99.90
37488;DHT22;23342;52.620;13.300;2022-07-04T00:43:32;20.70;99.90
37488;DHT22;23342;52.620;13.300;2022-07-04T00:45:57;20.70;99.90
37488;DHT22;23342;52.620;13.300;2022-07-04T00:48:23;20.70;99.90
37488;DHT22;23342;52.620;13.300;2022-07-04T00:50:48;20.60;99.90
37488;DHT22;23342;52.620;13.300;2022-07-04T00:53:14;20.60;99.90
37488;DHT22;23342;52.620;13.300;2022-07-04T00:55:40;20.50;99.90
37488;DHT22;23342;52.620;13.300;2022-07-04T00:58:07;20.50;99.90
37488;DHT22;23342;52.620;13.300;2022-07-04T01:00:33;20.40;99.90
37488;DHT22;23342;52.620;13.300;2022-07-04T01:02:58;20.30;99.90
37488;DHT22;23342;52.620;13.300;2022-07-04T01:05:24;20.30;99.90
37488;DHT22;23342;52.620;13.300;2022-07-04T01:07:50;20.20;99.90
37488;DHT22;23342;52.620;13.300;2022-07-04T01:10:16;20.20;99.90
37488;DHT22;23342;52.620;13.300;2022-07-04T01:12:41;20.20;99.90
37488;DHT22;23342;52.620;13.300;2022-07-04T01:15:08;20.10;99.90
37488;DHT22;23342;52.620;13.300;2022-07-04T01:17:34;20.10;99.90
37488;DHT22;23342;52.620;13.300;2022-07-04T01:20:00;20.00;99.90
37488;DHT22;23342;52.620;13.300;2022-07-04T01:22:25;20.00;99.90
37488;DHT22;23342;52.620;13.300;2022-07-04T01:24:51;19.90;99.90
37488;DHT22;23342;52.620;13.300;2022-07-04T01:27:17;19.90;99.90
37488;DHT22;23342;52.620;13.300;2022-07-04T01:29:43;19.90;99.90
37488;DHT22;23342;52.620;13.300;2022-07-04T01:32:09;19.80;99.90
37488;DHT22;23342;52.620;13.300;2022-07-04T01:34:35;19.80;99.90
37488;DHT22;23342;52.620;13.300;2022-07-04T01:37:01;19.70;99.90
37488;DHT22;23342;52.620;13.300;2022-07-04T01:39:28;19.70;99.90
37488;DHT22;23342;52.620;13.300;2022-07-04T01:41:54;19.60;99.90
37488;DHT22;23342;52.620;13.300;2022-07-04T01:44:19;19.60;99.90
37488;DHT22;23342;52.620;13.300;2022-07-04T01:46:45;19.50;99.90
37488;DHT22;23342;52.620;13.300;2022-07-04T01:49:10;19.50;99.90
37488;DHT22;23342;52.620;13.300;2022-07-04T01:51:43;19.40;99.90
37488;DHT22;23342;52.620;13.300;2022-07-04T01:54:09;19.30;99.90
37488;DHT22;23342;52.620;13.300;2022-07-04T01:56:34;19.20;99.90
37488;DHT22;23342;52.620;13.300;2022-07-04T01:59:00;19.20;99.90
37488;DHT22;23342;52.620;13.300;2022-07-04T02:01:27;19.20;99.90
37488;DHT22;23342;52.620;13.300;2022-07-04T02:03:56;19.20;99.90
37488;DHT22;23342;52.620;13.300;2022-07-04T02:06:22;19.20;99.90
37488;DHT22;23342;52.620;13.300;2022-07-04T02:08:47;19.20;99.90
37488;DHT22;23342;52.620;13.300;2022-07-04T02:11:31;19.20;99.90
37488;DHT22;23342;52.620;13.300;2022-07-04T02:14:16;19.10;99.90
37488;DHT22;23342;52.620;13.300;2022-07-04T02:16:41;19.10;99.90
37488;DHT22;23342;52.620;13.300;2022-07-04T02:19:06;19.10;99.90
37488;DHT22;23342;52.620;13.300;2022-07-04T02:21:32;19.10;99.90
37488;DHT22;23342;52.620;13.300;2022-07-04T02:23:58;19.00;99.90
37488;DHT22;23342;52.620;13.300;2022-07-04T02:26:23;19.00;99.90
37488;DHT22;23342;52.620;13.300;2022-07-04T02:28:49;18.90;99.90
37488;DHT22;23342;52.620;13.300;2022-07-04T02:31:14;18.90;99.90
37488;DHT22;23342;52.620;13.300;2022-07-04T02:33:40;18.90;99.90
37488;DHT22;23342;52.620;13.300;2022-07-04T02:36:05;18.80;99.90
37488;DHT22;23342;52.620;13.300;2022-07-04T02:38:31;18.80;99.90
37488;DHT22;23342;52.620;13.300;2022-07-04T02:40:56;18.70;99.90
37488;DHT22;23342;52.620;13.300;2022-07-04T02:43:21;18.70;99.90
37488;DHT22;23342;52.620;13.300;2022-07-04T02:45:47;18.70;99.90
37488;DHT22;23342;52.620;13.300;2022-07-04T02:48:12;18.70;99.90
37488;DHT22;23342;52.620;13.300;2022-07-04T02:50:38;18.70;99.90
37488;DHT22;23342;52.620;13.300;2022-07-04T02:53:03;18.60;99.90
37488;DHT22;23342;52.620;13.300;2022-07-04T02:55:29;18.60;99.90
37488;DHT22;23342;52.620;13.300;2022-07-04T02:57:54;18.60;99.90
37488;DHT22;23342;52.620;13.300;2022-07-04T03:00:20;18.60;99.90
37488;DHT22;23342;52.620;13.300;2022-07-04T03:02:45;18.50;99.90
37488;DHT22;23342;52.620;13.300;2022-07-04T03:05:11;18.50;99.90
37488;DHT22;23342;52.620;13.300;2022-07-04T03:07:36;18.50;99.90
37488;DHT22;23342;52.620;13.300;2022-07-04T03:10:02;18.50;99.90
37488;DHT22;23342;52.620;13.300;2022-07-04T03:12:27;18.50;99.90
37488;DHT22;23342;52.620;13.300;2022-07-04T03:14:53;18.40;99.90
37488;DHT22;23342;52.620;13.300;2022-07-04T03:17:19;18.40;99.90
37488;DHT22;23342;52.620;13.300;2022-07-04T03:19:45;18.40;99.90
37488;DHT22;23342;52.620;13.300;2022-07-04T03:22:11;18.40;99.90
37488;DHT22;23342;52.620;13.300;2022-07-04T03:24:36;18.40;99.90
37488;DHT22;23342;52.620;13.300;2022-07-04T03:27:02;18.40;99.90
37488;DHT22;23342;52.620;13.300;2022-07-04T03:29:27;18.40;99.90
37488;DHT22;23342;52.620;13.300;2022-07-04T03:31:53;18.40;99.90
37488;DHT22;23342;52.620;13.300;2022-07-04T03:34:18;18.40;99.90
37488;DHT22;23342;52.620;13.300;2022-07-04T03:36:44;18.40;99.90
37488;DHT22;23342;52.620;13.300;2022-07-04T03:39:09;18.40;99.90
37488;DHT22;23342;52.620;13.300;2022-07-04T03:41:36;18.30;99.90
37488;DHT22;23342;52.620;13.300;2022-07-04T03:44:02;18.30;99.90
37488;DHT22;23342;52.620;13.300;2022-07-04T03:46:27;18.30;99.90
37488;DHT22;23342;52.620;13.300;2022-07-04T03:48:53;18.30;99.90
37488;DHT22;23342;52.620;13.300;2022-07-04T03:51:20;18.30;99.90
37488;DHT22;23342;52.620;13.300;2022-07-04T03:53:45;18.30;99.90
37488;DHT22;23342;52.620;13.300;2022-07-04T03:56:11;18.40;99.90
37488;DHT22;23342;52.620;13.300;2022-07-04T03:58:36;18.40;99.90
37488;DHT22;23342;52.620;13.300;2022-07-04T04:01:02;18.40;99.90
37488;DHT22;23342;52.620;13.300;2022-07-04T04:03:28;18.40;99.90
37488;DHT22;23342;52.620;13.300;2022-07-04T04:06:12;18.40;99.90
37488;DHT22;23342;52.620;13.300;2022-07-04T04:08:37;18.40;99.90
37488;DHT22;23342;52.620;13.300;2022-07-04T04:11:03;18.50;99.90
37488;DHT22;23342;52.620;13.300;2022-07-04T04:13:28;18.40;99.90
37488;DHT22;23342;52.620;13.300;2022-07-04T04:15:54;18.50;99.90
37488;DHT22;23342;52.620;13.300;2022-07-04T04:18:19;18.50;99.90
37488;DHT22;23342;52.620;13.300;2022-07-04T04:20:45;18.50;99.90
37488;DHT22;23342;52.620;13.300;2022-07-04T04:23:10;18.50;99.90
37488;DHT22;23342;52.620;13.300;2022-07-04T04:25:36;18.60;99.90
37488;DHT22;23342;52.620;13.300;2022-07-04T04:28:01;18.60;99.90
37488;DHT22;23342;52.620;13.300;2022-07-04T04:30:27;18.60;99.90
37488;DHT22;23342;52.620;13.300;2022-07-04T04:32:52;18.70;99.90
37488;DHT22;23342;52.620;13.300;2022-07-04T04:35:18;18.70;99.90
37488;DHT22;23342;52.620;13.300;2022-07-04T04:37:44;18.70;99.90
37488;DHT22;23342;52.620;13.300;2022-07-04T04:40:11;18.70;99.90
37488;DHT22;23342;52.620;13.300;2022-07-04T04:42:36;18.70;99.90
37488;DHT22;23342;52.620;13.300;2022-07-04T04:45:04;18.80;99.90
37488;DHT22;23342;52.620;13.300;2022-07-04T04:47:30;18.90;99.90
37488;DHT22;23342;52.620;13.300;2022-07-04T04:49:55;18.90;99.90
37488;DHT22;23342;52.620;13.300;2022-07-04T04:52:21;18.90;99.90
37488;DHT22;23342;52.620;13.300;2022-07-04T04:54:46;18.90;99.90
37488;DHT22;23342;52.620;13.300;2022-07-04T04:57:11;19.00;99.90
37488;DHT22;23342;52.620;13.300;2022-07-04T04:59:37;19.00;99.90
37488;DHT22;23342;52.620;13.300;2022-07-04T05:02:03;19.20;99.90
37488;DHT22;23342;52.620;13.300;2022-07-04T05:04:29;19.20;99.90
37488;DHT22;23342;52.620;13.300;2022-07-04T05:06:54;19.30;99.90
37488;DHT22;23342;52.620;13.300;2022-07-04T05:09:20;19.20;99.90
37488;DHT22;23342;52.620;13.300;2022-07-04T05:11:46;19.20;99.90
37488;DHT22;23342;52.620;13.300;2022-07-04T05:14:12;19.10;99.90
37488;DHT22;23342;52.620;13.300;2022-07-04T05:16:37;19.00;99.90
37488;DHT22;23342;52.620;13.300;2022-07-04T05:19:03;19.00;99.90
37488;DHT22;23342;52.620;13.300;2022-07-04T05:21:28;19.00;99.90
37488;DHT22;23342;52.620;13.300;2022-07-04T05:23:55;19.00;99.90
37488;DHT22;23342;52.620;13.300;2022-07-04T05:26:21;19.00;99.90
37488;DHT22;23342;52.620;13.300;2022-07-04T05:28:47;19.00;99.90
37488;DHT22;23342;52.620;13.300;2022-07-04T05:31:12;19.00;99.90
37488;DHT22;23342;52.620;13.300;2022-07-04T05:33:38;19.00;99.90
37488;DHT22;23342;52.620;13.300;2022-07-04T05:36:04;19.00;99.90
37488;DHT22;23342;52.620;13.300;2022-07-04T05:38:29;19.10;99.90
37488;DHT22;23342;52.620;13.300;2022-07-04T05:40:55;19.10;99.90
37488;DHT22;23342;52.620;13.300;2022-07-04T05:43:20;19.10;99.90
37488;DHT22;23342;52.620;13.300;2022-07-04T05:45:47;19.20;99.90
37488;DHT22;23342;52.620;13.300;2022-07-04T05:48:13;19.30;99.90
37488;DHT22;23342;52.620;13.300;2022-07-04T05:50:39;19.30;99.90
37488;DHT22;23342;52.620;13.300;2022-07-04T05:53:05;19.40;99.90
37488;DHT22;23342;52.620;13.300;2022-07-04T05:55:30;19.30;99.90
37488;DHT22;23342;52.620;13.300;2022-07-04T05:57:56;19.40;99.90
37488;DHT22;23342;52.620;13.300;2022-07-04T06:00:22;19.30;99.90
37488;DHT22;23342;52.620;13.300;2022-07-04T06:02:47;19.50;99.90
37488;DHT22;23342;52.620;13.300;2022-07-04T06:05:13;19.50;99.90
37488;DHT22;23342;52.620;13.300;2022-07-04T06:07:39;19.60;99.90
37488;DHT22;23342;52.620;13.300;2022-07-04T06:10:05;19.70;99.90
37488;DHT22;23342;52.620;13.300;2022-07-04T06:12:32;19.70;99.90
37488;DHT22;23342;52.620;13.300;2022-07-04T06:14:57;19.80;99.90
37488;DHT22;23342;52.620;13.300;2022-07-04T06:17:24;19.80;99.90
37488;DHT22;23342;52.620;13.300;2022-07-04T06:19:49;19.90;99.90
37488;DHT22;23342;52.620;13.300;2022-07-04T06:22:15;19.90;99.90
37488;DHT22;23342;52.620;13.300;2022-07-04T06:24:40;19.90;99.90
37488;DHT22;23342;52.620;13.300;2022-07-04T06:27:06;19.90;99.90
37488;DHT22;23342;52.620;13.300;2022-07-04T06:29:31;19.90;99.90
37488;DHT22;23342;52.620;13.300;2022-07-04T06:31:57;20.00;99.90
37488;DHT22;23342;52.620;13.300;2022-07-04T06:34:22;20.00;99.90
37488;DHT22;23342;52.620;13.300;2022-07-04T06:37:06;20.00;99.90
37488;DHT22;23342;52.620;13.300;2022-07-04T06:39:32;20.00;99.90
37488;DHT22;23342;52.620;13.300;2022-07-04T06:41:57;20.10;99.90
37488;DHT22;23342;52.620;13.300;2022-07-04T06:44:23;20.10;99.90
37488;DHT22;23342;52.620;13.300;2022-07-04T06:46:48;20.20;99.90
37488;DHT22;23342;52.620;13.300;2022-07-04T06:49:14;20.30;99.90
37488;DHT22;23342;52.620;13.300;2022-07-04T06:51:39;20.30;99.90
37488;DHT22;23342;52.620;13.300;2022-07-04T06:54:05;20.50;99.90
37488;DHT22;23342;52.620;13.300;2022-07-04T06:56:30;20.50;99.90
37488;DHT22;23342;52.620;13.300;2022-07-04T06:58:56;20.60;99.90
37488;DHT22;23342;52.620;13.300;2022-07-04T07:01:22;20.70;99.90
37488;DHT22;23342;52.620;13.300;2022-07-04T07:03:47;20.70;99.90
37488;DHT22;23342;52.620;13.300;2022-07-04T07:06:13;20.70;99.90
37488;DHT22;23342;52.620;13.300;2022-07-04T07:08:38;20.70;99.90
37488;DHT22;23342;52.620;13.300;2022-07-04T07:11:04;20.80;99.90
37488;DHT22;23342;52.620;13.300;2022-07-04T07:13:42;20.80;99.90
37488;DHT22;23342;52.620;13.300;2022-07-04T07:16:08;20.80;99.90
37488;DHT22;23342;52.620;13.300;2022-07-04T07:18:34;20.80;99.90
37488;DHT22;23342;52.620;13.300;2022-07-04T07:20:59;20.80;99.90
37488;DHT22;23342;52.620;13.300;2022-07-04T07:23:25;20.80;99.90
37488;DHT22;23342;52.620;13.300;2022-07-04T07:25:50;20.80;99.90
37488;DHT22;23342;52.620;13.300;2022-07-04T07:28:16;20.90;99.90
37488;DHT22;23342;52.620;13.300;2022-07-04T07:30:42;20.80;99.90
37488;DHT22;23342;52.620;13.300;2022-07-04T07:33:07;20.90;99.90
37488;DHT22;23342;52.620;13.300;2022-07-04T07:35:33;20.70;99.90
37488;DHT22;23342;52.620;13.300;2022-07-04T07:37:58;20.60;99.90
37488;DHT22;23342;52.620;13.300;2022-07-04T07:40:24;20.50;99.90
37488;DHT22;23342;52.620;13.300;2022-07-04T07:42:49;20.60;99.90
37488;DHT22;23342;52.620;13.300;2022-07-04T07:45:15;20.60;99.90
37488;DHT22;23342;52.620;13.300;2022-07-04T07:47:41;20.60;99.90
37488;DHT22;23342;52.620;13.300;2022-07-04T07:50:07;20.60;99.90
37488;DHT22;23342;52.620;13.300;2022-07-04T07:52:32;20.60;99.90
37488;DHT22;23342;52.620;13.300;2022-07-04T07:54:58;20.50;99.90
37488;DHT22;23342;52.620;13.300;2022-07-04T07:57:23;20.50;99.90
37488;DHT22;23342;52.620;13.300;2022-07-04T07:59:49;20.40;99.90
37488;DHT22;23342;52.620;13.300;2022-07-04T08:02:14;20.40;99.90
37488;DHT22;23342;52.620;13.300;2022-07-04T08:04:40;20.50;99.90
37488;DHT22;23342;52.620;13.300;2022-07-04T08:07:08;20.60;99.90
37488;DHT22;23342;52.620;13.300;2022-07-04T08:09:35;20.70;99.90
37488;DHT22;23342;52.620;13.300;2022-07-04T08:12:02;20.90;99.90
37488;DHT22;23342;52.620;13.300;2022-07-04T08:14:28;20.90;99.90
37488;DHT22;23342;52.620;13.300;2022-07-04T08:16:55;20.90;99.90
37488;DHT22;23342;52.620;13.300;2022-07-04T08:19:21;20.90;99.90
37488;DHT22;23342;52.620;13.300;2022-07-04T08:21:47;20.90;99.90
37488;DHT22;23342;52.620;13.300;2022-07-04T08:24:14;21.00;99.90
37488;DHT22;23342;52.620;13.300;2022-07-04T08:26:40;21.10;99.90
37488;DHT22;23342;52.620;13.300;2022-07-04T08:29:06;21.20;99.90
37488;DHT22;23342;52.620;13.300;2022-07-04T08:31:32;21.40;99.90
37488;DHT22;23342;52.620;13.300;2022-07-04T08:33:57;21.40;99.90
37488;DHT22;23342;52.620;13.300;2022-07-04T08:36:23;21.30;99.90
37488;DHT22;23342;52.620;13.300;2022-07-04T08:38:48;21.40;99.90
37488;DHT22;23342;52.620;13.300;2022-07-04T08:41:16;21.50;99.90
37488;DHT22;23342;52.620;13.300;2022-07-04T08:43:42;21.60;99.90
37488;DHT22;23342;52.620;13.300;2022-07-04T08:46:09;21.70;99.90
37488;DHT22;23342;52.620;13.300;2022-07-04T08:48:37;21.80;99.90
37488;DHT22;23342;52.620;13.300;2022-07-04T08:51:12;21.90;99.90
37488;DHT22;23342;52.620;13.300;2022-07-04T08:53:46;22.00;99.90
37488;DHT22;23342;52.620;13.300;2022-07-04T08:56:14;22.10;99.90
37488;DHT22;23342;52.620;13.300;2022-07-04T08:58:59;22.20;99.90
37488;DHT22;23342;52.620;13.300;2022-07-04T09:01:26;22.20;99.90
37488;DHT22;23342;52.620;13.300;2022-07-04T09:03:52;22.10;99.90
37488;DHT22;23342;52.620;13.300;2022-07-04T09:06:18;22.00;99.90
37488;DHT22;23342;52.620;13.300;2022-07-04T09:08:44;22.10;99.90
37488;DHT22;23342;52.620;13.300;2022-07-04T09:11:09;22.00;99.90
37488;DHT22;23342;52.620;13.300;2022-07-04T09:13:35;22.00;99.90
37488;DHT22;23342;52.620;13.300;2022-07-04T09:16:01;22.20;99.90
37488;DHT22;23342;52.620;13.300;2022-07-04T09:18:29;22.30;99.90
37488;DHT22;23342;52.620;13.300;2022-07-04T09:20:57;22.40;99.90
37488;DHT22;23342;52.620;13.300;2022-07-04T09:23:28;22.50;99.90
37488;DHT22;23342;52.620;13.300;2022-07-04T09:26:15;22.70;99.90
37488;DHT22;23342;52.620;13.300;2022-07-04T09:28:43;23.00;99.90
37488;DHT22;23342;52.620;13.300;2022-07-04T09:31:20;23.20;99.90
37488;DHT22;23342;52.620;13.300;2022-07-04T09:34:03;23.50;99.90
37488;DHT22;23342;52.620;13.300;2022-07-04T09:36:30;23.70;99.90
37488;DHT22;23342;52.620;13.300;2022-07-04T09:39:17;23.80;99.90
37488;DHT22;23342;52.620;13.300;2022-07-04T09:41:59;23.90;99.90
37488;DHT22;23342;52.620;13.300;2022-07-04T09:47:56;24.40;99.90
37488;DHT22;23342;52.620;13.300;2022-07-04T09:50:23;24.50;99.90
37488;DHT22;23342;52.620;13.300;2022-07-04T09:53:02;24.60;99.90
37488;DHT22;23342;52.620;13.300;2022-07-04T09:58:11;24.90;99.90
37488;DHT22;23342;52.620;13.300;2022-07-04T10:00:42;24.80;99.90
37488;DHT22;23342;52.620;13.300;2022-07-04T10:03:26;24.70;99.90
37488;DHT22;23342;52.620;13.300;2022-07-04T10:06:14;24.90;99.90
37488;DHT22;23342;52.620;13.300;2022-07-04T10:08:44;25.10;99.90
37488;DHT22;23342;52.620;13.300;2022-07-04T10:11:10;25.10;99.90
37488;DHT22;23342;52.620;13.300;2022-07-04T10:13:37;25.10;99.90
37488;DHT22;23342;52.620;13.300;2022-07-04T10:16:03;25.10;99.90
37488;DHT22;23342;52.620;13.300;2022-07-04T10:18:29;25.10;99.90
37488;DHT22;23342;52.620;13.300;2022-07-04T10:20:56;25.10;99.90
37488;DHT22;23342;52.620;13.300;2022-07-04T10:23:22;25.10;99.90
37488;DHT22;23342;52.620;13.300;2022-07-04T10:25:50;25.10;99.90
37488;DHT22;23342;52.620;13.300;2022-07-04T10:28:17;24.90;99.90
37488;DHT22;23342;52.620;13.300;2022-07-04T10:30:46;25.10;99.90
37488;DHT22;23342;52.620;13.300;2022-07-04T10:33:13;25.10;99.90
37488;DHT22;23342;52.620;13.300;2022-07-04T10:36:01;25.00;99.90
37488;DHT22;23342;52.620;13.300;2022-07-04T10:38:31;24.80;99.90
37488;DHT22;23342;52.620;13.300;2022-07-04T10:41:08;24.60;99.90
37488;DHT22;23342;52.620;13.300;2022-07-04T10:43:37;24.50;99.90
37488;DHT22;23342;52.620;13.300;2022-07-04T10:47:04;24.30;99.90
37488;DHT22;23342;52.620;13.300;2022-07-04T10:49:30;24.20;99.90
37488;DHT22;23342;52.620;13.300;2022-07-04T10:52:13;24.40;99.90
37488;DHT22;23342;52.620;13.300;2022-07-04T10:54:40;24.60;99.90
37488;DHT22;23342;52.620;13.300;2022-07-04T10:57:21;25.00;99.90
37488;DHT22;23342;52.620;13.300;2022-07-04T11:01:09;25.40;99.90
37488;DHT22;23342;52.620;13.300;2022-07-04T11:03:53;25.70;99.90
37488;DHT22;23342;52.620;13.300;2022-07-04T11:15:57;25.20;99.90
37488;DHT22;23342;52.620;13.300;2022-07-04T11:18:23;25.50;99.90
37488;DHT22;23342;52.620;13.300;2022-07-04T11:20:49;25.60;99.90
37488;DHT22;23342;52.620;13.300;2022-07-04T11:23:17;25.70;99.90
37488;DHT22;23342;52.620;13.300;2022-07-04T11:25:46;25.70;99.90
37488;DHT22;23342;52.620;13.300;2022-07-04T11:28:22;25.70;99.90
37488;DHT22;23342;52.620;13.300;2022-07-04T11:30:53;25.40;99.90
37488;DHT22;23342;52.620;13.300;2022-07-04T11:33:24;25.30;99.90
37488;DHT22;23342;52.620;13.300;2022-07-04T11:36:07;25.10;99.90
37488;DHT22;23342;52.620;13.300;2022-07-04T11:38:56;24.90;99.90
37488;DHT22;23342;52.620;13.300;2022-07-04T11:41:39;24.80;99.90
37488;DHT22;23342;52.620;13.300;2022-07-04T11:44:25;24.60;99.90
37488;DHT22;23342;52.620;13.300;2022-07-04T11:47:15;24.60;99.90
37488;DHT22;23342;52.620;13.300;2022-07-04T11:49:46;24.50;99.90
37488;DHT22;23342;52.620;13.300;2022-07-04T11:52:13;24.50;99.90
37488;DHT22;23342;52.620;13.300;2022-07-04T11:54:40;24.50;99.90
37488;DHT22;23342;52.620;13.300;2022-07-04T11:57:21;24.50;99.90
37488;DHT22;23342;52.620;13.300;2022-07-04T11:59:53;24.70;99.90
37488;DHT22;23342;52.620;13.300;2022-07-04T12:02:18;25.20;99.90
37488;DHT22;23342;52.620;13.300;2022-07-04T12:04:44;25.60;99.90
37488;DHT22;23342;52.620;13.300;2022-07-04T12:07:15;25.80;99.90
37488;DHT22;23342;52.620;13.300;2022-07-04T12:09:42;26.00;99.90
37488;DHT22;23342;52.620;13.300;2022-07-04T12:12:09;26.00;99.90
37488;DHT22;23342;52.620;13.300;2022-07-04T12:14:35;25.70;99.90
37488;DHT22;23342;52.620;13.300;2022-07-04T12:17:15;25.80;99.90
37488;DHT22;23342;52.620;13.300;2022-07-04T12:19:51;26.00;99.90
37488;DHT22;23342;52.620;13.300;2022-07-04T12:22:38;26.20;99.90
37488;DHT22;23342;52.620;13.300;2022-07-04T12:25:06;26.30;99.90
37488;DHT22;23342;52.620;13.300;2022-07-04T12:27:32;26.30;99.90
37488;DHT22;23342;52.620;13.300;2022-07-04T12:29:59;26.10;99.90
37488;DHT22;23342;52.620;13.300;2022-07-04T12:32:56;26.00;99.90
37488;DHT22;23342;52.620;13.300;2022-07-04T12:38:43;26.30;99.90
37488;DHT22;23342;52.620;13.300;2022-07-04T12:41:12;26.70;99.90
37488;DHT22;23342;52.620;13.300;2022-07-04T12:43:47;26.90;99.90
37488;DHT22;23342;52.620;13.300;2022-07-04T12:46:32;27.20;99.90
37488;DHT22;23342;52.620;13.300;2022-07-04T12:48:59;27.40;99.90
37488;DHT22;23342;52.620;13.300;2022-07-04T12:51:33;27.20;99.90
37488;DHT22;23342;52.620;13.300;2022-07-04T12:54:06;26.80;99.90
37488;DHT22;23342;52.620;13.300;2022-07-04T12:56:40;26.40;99.90
37488;DHT22;23342;52.620;13.300;2022-07-04T12:59:11;26.30;99.90
37488;DHT22;23342;52.620;13.300;2022-07-04T13:01:39;26.30;99.90
37488;DHT22;23342;52.620;13.300;2022-07-04T13:04:05;26.40;99.90
37488;DHT22;23342;52.620;13.300;2022-07-04T13:06:31;26.50;99.90
37488;DHT22;23342;52.620;13.300;2022-07-04T13:08:57;26.70;99.90
37488;DHT22;23342;52.620;13.300;2022-07-04T13:11:23;26.80;99.90
37488;DHT22;23342;52.620;13.300;2022-07-04T13:14:08;27.00;99.90
37488;DHT22;23342;52.620;13.300;2022-07-04T13:16:34;27.10;99.90
37488;DHT22;23342;52.620;13.300;2022-07-04T13:19:00;27.10;99.80
37488;DHT22;23342;52.620;13.300;2022-07-04T13:21:26;27.20;99.90
37488;DHT22;23342;52.620;13.300;2022-07-04T13:23:54;27.40;99.90
37488;DHT22;23342;52.620;13.300;2022-07-04T13:26:20;27.50;98.50
37488;DHT22;23342;52.620;13.300;2022-07-04T13:28:46;27.50;97.80
37488;DHT22;23342;52.620;13.300;2022-07-04T13:31:11;27.50;98.20
37488;DHT22;23342;52.620;13.300;2022-07-04T13:33:37;27.50;99.20
37488;DHT22;23342;52.620;13.300;2022-07-04T13:36:03;27.70;99.10
37488;DHT22;23342;52.620;13.300;2022-07-04T13:38:29;27.70;99.40
37488;DHT22;23342;52.620;13.300;2022-07-04T13:40:55;27.80;98.40
37488;DHT22;23342;52.620;13.300;2022-07-04T13:43:26;27.40;98.90
37488;DHT22;23342;52.620;13.300;2022-07-04T13:45:54;27.00;98.40
37488;DHT22;23342;52.620;13.300;2022-07-04T13:48:20;26.60;98.60
37488;DHT22;23342;52.620;13.300;2022-07-04T13:50:46;26.60;99.20
37488;DHT22;23342;52.620;13.300;2022-07-04T13:53:11;26.50;98.30
37488;DHT22;23342;52.620;13.300;2022-07-04T13:55:37;26.30;98.70
37488;DHT22;23342;52.620;13.300;2022-07-04T13:58:04;26.30;99.20
37488;DHT22;23342;52.620;13.300;2022-07-04T14:00:30;26.30;98.50
37488;DHT22;23342;52.620;13.300;2022-07-04T14:02:55;26.50;98.70
37488;DHT22;23342;52.620;13.300;2022-07-04T14:05:21;26.50;98.70
37488;DHT22;23342;52.620;13.300;2022-07-04T14:07:46;26.30;98.30
37488;DHT22;23342;52.620;13.300;2022-07-04T14:10:13;26.10;98.80
37488;DHT22;23342;52.620;13.300;2022-07-04T14:12:38;26.20;98.50
37488;DHT22;23342;52.620;13.300;2022-07-04T14:15:05;26.30;99.10
37488;DHT22;23342;52.620;13.300;2022-07-04T14:17:31;26.60;98.10
37488;DHT22;23342;52.620;13.300;2022-07-04T14:19:57;26.90;97.40
37488;DHT22;23342;52.620;13.300;2022-07-04T14:22:22;27.10;97.40
37488;DHT22;23342;52.620;13.300;2022-07-04T14:24:48;27.10;96.80
37488;DHT22;23342;52.620;13.300;2022-07-04T14:27:14;26.90;97.10
37488;DHT22;23342;52.620;13.300;2022-07-04T14:29:39;26.50;97.20
37488;DHT22;23342;52.620;13.300;2022-07-04T14:32:07;26.30;97.60
37488;DHT22;23342;52.620;13.300;2022-07-04T14:34:33;26.00;97.50
37488;DHT22;23342;52.620;13.300;2022-07-04T14:36:58;25.80;97.40
37488;DHT22;23342;52.620;13.300;2022-07-04T14:39:24;25.70;98.00
37488;DHT22;23342;52.620;13.300;2022-07-04T14:41:49;25.80;98.70
37488;DHT22;23342;52.620;13.300;2022-07-04T14:44:15;26.00;97.40
37488;DHT22;23342;52.620;13.300;2022-07-04T14:46:41;26.30;97.50
37488;DHT22;23342;52.620;13.300;2022-07-04T14:49:06;26.70;97.80
37488;DHT22;23342;52.620;13.300;2022-07-04T14:51:32;26.70;96.50
37488;DHT22;23342;52.620;13.300;2022-07-04T14:53:57;26.70;96.70
37488;DHT22;23342;52.620;13.300;2022-07-04T14:56:23;26.60;97.40
37488;DHT22;23342;52.620;13.300;2022-07-04T14:58:48;26.60;97.90
37488;DHT22;23342;52.620;13.300;2022-07-04T15:01:14;26.60;96.60
37488;DHT22;23342;52.620;13.300;2022-07-04T15:03:39;26.40;96.70
37488;DHT22;23342;52.620;13.300;2022-07-04T15:06:05;26.30;98.10
37488;DHT22;23342;52.620;13.300;2022-07-04T15:08:30;26.30;96.50
37488;DHT22;23342;52.620;13.300;2022-07-04T15:10:56;26.30;96.70
37488;DHT22;23342;52.620;13.300;2022-07-04T15:13:21;26.10;97.00
37488;DHT22;23342;52.620;13.300;2022-07-04T15:15:47;26.00;96.80
37488;DHT22;23342;52.620;13.300;2022-07-04T15:18:12;25.90;97.30
37488;DHT22;23342;52.620;13.300;2022-07-04T15:20:38;26.00;97.10
37488;DHT22;23342;52.620;13.300;2022-07-04T15:23:23;26.00;97.20
37488;DHT22;23342;52.620;13.300;2022-07-04T15:26:07;25.90;97.50
37488;DHT22;23342;52.620;13.300;2022-07-04T15:28:32;25.70;96.90
37488;DHT22;23342;52.620;13.300;2022-07-04T15:30:58;25.50;97.50
37488;DHT22;23342;52.620;13.300;2022-07-04T15:33:26;25.30;98.10
37488;DHT22;23342;52.620;13.300;2022-07-04T15:35:53;25.20;98.00
37488;DHT22;23342;52.620;13.300;2022-07-04T15:38:19;25.10;98.40
37488;DHT22;23342;52.620;13.300;2022-07-04T15:40:45;24.90;98.10